Terminal Aerodrome Forecast
Issued by NWS Cleveland, OH

Home | Current Version | Previous Version | Graphics & Text | Print | Product List | Glossary On
Versions: 1 2 3 4 5 6 7 8 9 10 11 12 13 14 15 16 17 18
000
FTUS41 KCLE 021457 AAB
TAFCLE
TAF AMD
KCLE 021457Z 0215/0318 02010KT P6SM SCT015 BKN035
      TEMPO 0215/0217 BKN015
     FM021800 02012KT P6SM SCT045
     FM030100 05005KT P6SM SKC
     FM031400 05010KT P6SM SCT250=

USA.gov is the U.S. government's official web portal to all federal, state and local government web resources and services.